Starling — 9V3666 — position and weather

sailwx.info

Track history (hours):
 
Tides and Currents Weather Stations Pressure Air Temp Water Temp Dewpoint Dewpoint Depression Visibility Wind Speed Wind Dir Waves Ship Positions

Starling

Last reported at 2017-Sep-24 19:20 UTC. Time now 2017-Sep-26 16:23 UTC.
Position N 27°35' W 015°16'.

Length 228 m; draft 12.5 m.

Type: Ship. MMSI: 563445000.

Date/timePositionNaut miles runAvg speedWind from/ knotsBaromVisibWave heightAir tempDewpointWater temp
2017-Sep-24 19:20N 27°35' W 015°16'513.8
2017-Sep-24 18:58N 27°40' W 015°14'714.0
2017-Sep-24 18:30N 27°46' W 015°11'714.4
2017-Sep-24 18:00N 27°52' W 015°08'714.1
2017-Sep-24 17:30N 27°59' W 015°05'713.6
2017-Sep-24 17:00N 28°05' W 015°02'713.9
2017-Sep-24 16:30N 28°12' W 014°59'714.1
2017-Sep-24 16:00N 28°18' W 014°56'713.7
2017-Sep-24 15:30N 28°25' W 014°54'713.8
2017-Sep-24 15:00N 28°32' W 014°53'713.9
2017-Sep-24 14:30N 28°39' W 014°52'714.1
2017-Sep-24 14:00N 28°46' W 014°50'714.2
2017-Sep-24 13:30N 28°52' W 014°49'714.1
2017-Sep-24 13:00N 28°59' W 014°47'714.4
2017-Sep-24 12:30N 29°05' W 014°41'714.3
2017-Sep-24 12:00N 29°10' W 014°35'714.1
2017-Sep-24 11:30N 29°14' W 014°29'1314.0
2017-Sep-24 10:36N 29°23' W 014°19'1113.9
2017-Sep-24 09:50N 29°31' W 014°10'514.1
2017-Sep-24 09:28N 29°35' W 014°06'714.2
2017-Sep-24 09:00N 29°39' W 014°01'1214.3
2017-Sep-24 08:10N 29°48' W 013°51'214.1
2017-Sep-24 08:00N 29°50' W 013°50'1014.2
2017-Sep-24 07:19N 29°56' W 013°41'814.0
2017-Sep-24 06:46N 30°02' W 013°35'413.8
2017-Sep-24 06:30N 30°04' W 013°32'713.9
2017-Sep-24 06:00N 30°09' W 013°26'1214.3
2017-Sep-24 05:08N 30°18' W 013°16'314.5
2017-Sep-24 04:57N 30°20' W 013°14'614.2
2017-Sep-24 04:31N 30°24' W 013°09'814.0
2017-Sep-24 03:56N 30°30' W 013°02'814.1
2017-Sep-24 03:24N 30°35' W 012°56'514.3
2017-Sep-24 03:00N 30°39' W 012°52'714.2
2017-Sep-24 02:30N 30°44' W 012°46'714.1
2017-Sep-24 02:00N 30°49' W 012°40'714.4
2017-Sep-24 01:30N 30°54' W 012°34'714.2
2017-Sep-24 01:00N 30°60' W 012°29'913.7
2017-Sep-24 00:21N 31°06' W 012°21'514.0
2017-Sep-24 00:00N 31°09' W 012°17'714.5
2017-Sep-23 23:30N 31°15' W 012°11'64213.1
2017-Sep-21 22:37N 36°36' W 001°01'214.1
2017-Sep-21 22:30N 36°37' W 000°59'1014.1
2017-Sep-21 21:48N 36°39' W 000°47'414.0
2017-Sep-21 21:30N 36°40' W 000°42'713.9
2017-Sep-21 21:00N 36°41' W 000°33'714.0
2017-Sep-21 20:28N 36°42' W 000°24'1114.0
2017-Sep-21 19:39N 36°45' W 000°10'214.0
2017-Sep-21 19:30N 36°45' W 000°08'714.1
2017-Sep-21 19:00N 36°47' E 000°01'714.2
2017-Sep-21 18:30N 36°48' E 000°10'714.0
2017-Sep-21 18:00N 36°49' E 000°18'714.0
2017-Sep-21 17:30N 36°51' E 000°27'2113.8
2017-Sep-21 16:00N 36°55' E 000°52'713.8
2017-Sep-21 15:30N 36°57' E 001°00'714.2
2017-Sep-21 15:00N 36°58' E 001°09'914.4
2017-Sep-21 14:21N 36°60' E 001°21'514.4
2017-Sep-21 14:00N 37°01' E 001°27'714.4
2017-Sep-21 13:30N 37°02' E 001°35'914.2
2017-Sep-21 12:52N 37°04' E 001°47'52012.6
2017-Sep-19 19:27N 38°26' E 012°36'613.0
2017-Sep-19 19:00N 38°26' E 012°43'613.0
2017-Sep-19 18:30N 38°27' E 012°52'612.7
2017-Sep-19 18:00N 38°27' E 012°60'612.9
2017-Sep-19 17:30N 38°26' E 013°08'713.0
2017-Sep-19 17:00N 38°26' E 013°16'713.3
2017-Sep-19 16:30N 38°25' E 013°25'713.1
2017-Sep-19 16:00N 38°25' E 013°33'612.8
2017-Sep-19 15:30N 38°24' E 013°41'712.9
2017-Sep-19 15:00N 38°24' E 013°50'713.2
2017-Sep-19 14:28N 38°23' E 013°58'1013.3
2017-Sep-19 13:42N 38°22' E 014°11'313.1
2017-Sep-19 13:30N 38°22' E 014°15'612.5
2017-Sep-19 12:59N 38°21' E 014°23'612.3
2017-Sep-19 12:30N 38°21' E 014°30'612.5
2017-Sep-19 12:00N 38°20' E 014°38'612.7
2017-Sep-19 11:30N 38°20' E 014°46'612.5
2017-Sep-19 11:00N 38°19' E 014°54'612.7
2017-Sep-19 10:30N 38°19' E 015°02'613.1
2017-Sep-19 10:00N 38°19' E 015°11'611.8
2017-Sep-19 09:30N 38°17' E 015°18'4 7.0
2017-Sep-19 09:00N 38°15' E 015°21'0 0.7
2017-Sep-19 08:26N 38°14' E 015°21'0 0.0
2017-Sep-19 07:56N 38°14' E 015°21'0 0.1
2017-Sep-19 07:26N 38°14' E 015°21'0 0.0
2017-Sep-19 06:56N 38°14' E 015°21'0 0.0
2017-Sep-19 06:26N 38°14' E 015°21'0 0.0
2017-Sep-19 05:56N 38°14' E 015°21'0 0.0
2017-Sep-19 05:26N 38°14' E 015°21'0 0.1
2017-Sep-19 04:56N 38°14' E 015°21'0 0.1
2017-Sep-19 04:26N 38°14' E 015°21'0 0.1
2017-Sep-19 03:59N 38°14' E 015°21'0 0.1
2017-Sep-19 03:26N 38°14' E 015°21'0 0.0
2017-Sep-19 02:56N 38°14' E 015°21'0 0.0
2017-Sep-19 02:26N 38°14' E 015°21'0 0.0
2017-Sep-19 01:56N 38°14' E 015°21'0 0.0
2017-Sep-19 01:26N 38°14' E 015°21'0 0.0
2017-Sep-19 00:56N 38°14' E 015°21'0 0.0
2017-Sep-19 00:26N 38°14' E 015°21'0 0.0
2017-Sep-18 23:56N 38°14' E 015°21'0 0.0
2017-Sep-18 23:26N 38°14' E 015°21'0 0.0
2017-Sep-18 22:59N 38°14' E 015°21'0 0.1
2017-Sep-18 22:26N 38°14' E 015°21'0 0.2
2017-Sep-18 21:56N 38°14' E 015°21'0 0.3
2017-Sep-18 21:30N 38°14' E 015°21'2 4.1
2017-Sep-18 21:00N 38°15' E 015°19'3 4.9
2017-Sep-18 20:26N 38°13' E 015°16'0 0.0
2017-Sep-18 19:56N 38°13' E 015°16'0 0.0
2017-Sep-18 19:26N 38°13' E 015°16'0 0.0
2017-Sep-18 18:56N 38°13' E 015°16'0 0.0
2017-Sep-18 18:26N 38°13' E 015°16'0 0.0
2017-Sep-18 17:56N 38°13' E 015°16'0 0.0
2017-Sep-18 17:26N 38°13' E 015°16'0 0.0
2017-Sep-18 16:56N 38°13' E 015°16'0 0.0
2017-Sep-18 16:26N 38°13' E 015°16'0 0.0
2017-Sep-18 15:56N 38°13' E 015°16'0 0.0
2017-Sep-18 15:26N 38°13' E 015°16'0 0.0
2017-Sep-18 14:56N 38°13' E 015°16'0 0.0
2017-Sep-18 14:26N 38°13' E 015°16'0 0.0
2017-Sep-18 13:56N 38°13' E 015°16'0 0.0
2017-Sep-18 13:26N 38°13' E 015°16'0 0.0
2017-Sep-18 12:56N 38°13' E 015°16'0 0.0
2017-Sep-18 12:26N 38°13' E 015°16'0 0.0
2017-Sep-18 11:50N 38°13' E 015°16'0 0.0
2017-Sep-18 11:26N 38°13' E 015°16'0 0.0
2017-Sep-18 10:56N 38°13' E 015°16'0 0.0
2017-Sep-18 10:26N 38°13' E 015°16'0 0.0
2017-Sep-18 09:56N 38°13' E 015°16'0 0.0
2017-Sep-18 09:26N 38°13' E 015°16'0 0.0
2017-Sep-18 08:56N 38°13' E 015°16'0 0.0
2017-Sep-18 08:26N 38°13' E 015°16'0 0.0
2017-Sep-18 07:56N 38°13' E 015°16'0 0.0
2017-Sep-18 06:02N 38°13' E 015°16'0 0.0
2017-Sep-18 05:56N 38°13' E 015°16'0 0.0
2017-Sep-18 05:26N 38°13' E 015°16'0 0.0
2017-Sep-18 04:56N 38°13' E 015°16'0 0.0
2017-Sep-18 04:26N 38°13' E 015°16'0 0.0
2017-Sep-18 03:56N 38°13' E 015°16'0 0.0
2017-Sep-18 03:26N 38°13' E 015°16'0 0.0
2017-Sep-18 02:56N 38°13' E 015°16'0 0.0
2017-Sep-18 02:25N 38°13' E 015°16'0 0.0
2017-Sep-18 01:55N 38°13' E 015°16'0 0.0
2017-Sep-18 01:26N 38°13' E 015°16'0 0.0
2017-Sep-18 00:56N 38°13' E 015°16'0 0.0
2017-Sep-18 00:25N 38°13' E 015°16'0 0.0
2017-Sep-17 23:56N 38°13' E 015°16'0 0.0
2017-Sep-17 23:26N 38°13' E 015°16'0 0.0
2017-Sep-17 22:55N 38°13' E 015°16'0 0.0
2017-Sep-17 22:26N 38°13' E 015°16'0 0.0
2017-Sep-17 21:56N 38°13' E 015°16'0 0.0
2017-Sep-17 21:26N 38°13' E 015°16'0 0.0
2017-Sep-17 20:55N 38°13' E 015°16'0 0.0
2017-Sep-17 20:25N 38°13' E 015°16'0 0.0
2017-Sep-17 19:55N 38°13' E 015°16'0 0.0
2017-Sep-17 19:25N 38°13' E 015°16'0 0.0
2017-Sep-17 18:56N 38°13' E 015°16'0 0.0
2017-Sep-17 18:26N 38°13' E 015°16'0 0.0
2017-Sep-17 17:56N 38°13' E 015°16'0 0.0
2017-Sep-17 17:26N 38°13' E 015°16'0 0.0
2017-Sep-17 16:55N 38°13' E 015°16'0 0.0
2017-Sep-17 16:25N 38°13' E 015°16'0 0.0
2017-Sep-17 13:55N 38°13' E 015°16'0 0.0
2017-Sep-17 13:25N 38°13' E 015°16'0 0.0
2017-Sep-17 12:55N 38°13' E 015°16'0 0.0
2017-Sep-17 12:25N 38°13' E 015°16'0 0.0
2017-Sep-17 11:55N 38°13' E 015°16'0 0.0
2017-Sep-17 11:25N 38°13' E 015°16'0 0.0
2017-Sep-17 10:56N 38°13' E 015°16'0 0.0
2017-Sep-17 10:25N 38°13' E 015°16'0 0.0
2017-Sep-17 09:55N 38°13' E 015°16'0 0.0
2017-Sep-17 09:25N 38°13' E 015°16'0 0.0
2017-Sep-17 08:55N 38°13' E 015°16'0 0.0
2017-Sep-17 08:26N 38°13' E 015°16'0 0.0
2017-Sep-17 07:56N 38°13' E 015°16'0 0.0
2017-Sep-17 07:25N 38°13' E 015°16'0 0.0
2017-Sep-17 06:55N 38°13' E 015°16'0 0.0
2017-Sep-17 06:25N 38°13' E 015°16'0 0.0
2017-Sep-17 05:55N 38°13' E 015°16'0 0.0
2017-Sep-17 05:25N 38°13' E 015°16'0 0.0
2017-Sep-17 04:55N 38°13' E 015°16'0 0.0
2017-Sep-17 04:25N 38°13' E 015°16'0 0.0
2017-Sep-17 03:55N 38°13' E 015°16'0 0.0
2017-Sep-17 03:25N 38°13' E 015°16'0 0.0
2017-Sep-17 02:55N 38°13' E 015°16'0 0.0
2017-Sep-17 02:25N 38°13' E 015°16'0 0.0
2017-Sep-17 01:55N 38°13' E 015°16'0 0.0
2017-Sep-17 01:25N 38°13' E 015°16'0 0.0
2017-Sep-17 00:55N 38°13' E 015°16'0 0.0
2017-Sep-17 00:25N 38°13' E 015°16'0 0.0
2017-Sep-16 23:55N 38°13' E 015°16'0 0.0
2017-Sep-16 23:25N 38°13' E 015°16'0 0.0
2017-Sep-16 22:55N 38°13' E 015°16'0 0.0
2017-Sep-16 22:25N 38°13' E 015°16'0 0.0
2017-Sep-16 21:55N 38°13' E 015°16'0 0.0
2017-Sep-16 21:25N 38°13' E 015°16'0 0.0
2017-Sep-16 20:55N 38°13' E 015°16'0 0.0
2017-Sep-16 20:25N 38°13' E 015°16'0 0.0
2017-Sep-16 19:55N 38°13' E 015°16'0 0.0
2017-Sep-16 19:25N 38°13' E 015°16'0 0.0
2017-Sep-16 18:55N 38°13' E 015°16'0 0.0
2017-Sep-16 18:25N 38°13' E 015°16'0 0.0
2017-Sep-16 17:55N 38°13' E 015°16'0 0.0
2017-Sep-16 17:25N 38°13' E 015°16'0 0.0
2017-Sep-16 16:55N 38°13' E 015°16'0 0.0
2017-Sep-16 16:25N 38°13' E 015°16'0 0.0
2017-Sep-16 15:55N 38°13' E 015°16'0 0.0
2017-Sep-16 15:25N 38°13' E 015°16'0 0.0
2017-Sep-16 14:55N 38°13' E 015°16'0 0.0
2017-Sep-16 14:25N 38°13' E 015°16'0 0.0
2017-Sep-16 14:01N 38°13' E 015°16'0 0.5
2017-Sep-16 13:30N 38°13' E 015°16'2 4.0
2017-Sep-16 13:01N 38°13' E 015°18'0 0.3
2017-Sep-16 12:26N 38°13' E 015°18'0 0.2
2017-Sep-16 11:59N 38°13' E 015°18'0 0.2
2017-Sep-16 11:26N 38°13' E 015°18'0 0.3
2017-Sep-16 10:56N 38°13' E 015°18'0 0.0
2017-Sep-16 09:14N 38°13' E 015°18'0 0.1
2017-Sep-16 08:56N 38°13' E 015°18'0 0.1
2017-Sep-16 08:26N 38°13' E 015°18'0 0.1
2017-Sep-16 07:56N 38°13' E 015°18'0 0.0
2017-Sep-16 07:26N 38°13' E 015°18'0 0.0
2017-Sep-16 06:56N 38°13' E 015°18'0 0.0
2017-Sep-16 06:26N 38°13' E 015°18'0 0.1
2017-Sep-16 05:56N 38°13' E 015°18'0 0.1
2017-Sep-16 05:26N 38°13' E 015°18'0 0.0
2017-Sep-16 04:56N 38°13' E 015°18'0 0.0
2017-Sep-16 04:26N 38°13' E 015°18'0 0.0
2017-Sep-16 03:44N 38°13' E 015°18'0 0.0
2017-Sep-16 03:26N 38°13' E 015°18'0 0.0
2017-Sep-16 02:56N 38°13' E 015°18'0 0.1
2017-Sep-16 02:29N 38°13' E 015°18'0 0.1
2017-Sep-16 01:56N 38°13' E 015°18'0 0.1
2017-Sep-16 01:26N 38°13' E 015°18'0 0.1
2017-Sep-16 00:56N 38°13' E 015°18'0 0.0
2017-Sep-16 00:29N 38°13' E 015°18'0 0.0
2017-Sep-15 23:59N 38°13' E 015°18'0 0.0
2017-Sep-15 23:29N 38°13' E 015°18'0 0.0
2017-Sep-15 22:59N 38°13' E 015°18'0 0.0
2017-Sep-15 22:29N 38°13' E 015°18'0 0.0
2017-Sep-15 21:56N 38°13' E 015°18'0 0.0
2017-Sep-15 21:29N 38°13' E 015°18'0 0.0
2017-Sep-15 20:59N 38°13' E 015°18'0 0.0
2017-Sep-15 20:26N 38°13' E 015°18'0 0.0
2017-Sep-15 19:56N 38°13' E 015°18'0 0.2
2017-Sep-15 19:26N 38°13' E 015°18'0 0.2
2017-Sep-15 18:56N 38°13' E 015°18'0 0.1
2017-Sep-15 18:26N 38°13' E 015°18'0 0.0
2017-Sep-15 17:56N 38°13' E 015°18'0 0.0
2017-Sep-15 17:26N 38°13' E 015°18'0 0.0
2017-Sep-15 16:56N 38°13' E 015°18'0 0.0
2017-Sep-15 16:26N 38°13' E 015°18'0 0.0
2017-Sep-15 15:56N 38°13' E 015°18'0 0.0
2017-Sep-15 15:26N 38°13' E 015°18'0 0.0
2017-Sep-15 14:56N 38°13' E 015°18'0 0.0
2017-Sep-15 14:26N 38°13' E 015°18'0 0.0
2017-Sep-15 13:56N 38°13' E 015°18'0 0.0
2017-Sep-15 13:26N 38°13' E 015°18'0 0.0
2017-Sep-15 12:56N 38°13' E 015°18'0 0.0
2017-Sep-15 12:26N 38°13' E 015°18'0 0.0
2017-Sep-15 11:56N 38°13' E 015°18'0 0.0
2017-Sep-15 11:26N 38°13' E 015°18'0 0.0
2017-Sep-15 10:56N 38°13' E 015°18'0 0.0
2017-Sep-15 10:26N 38°13' E 015°18'0 0.0
2017-Sep-15 09:59N 38°13' E 015°18'0 0.0
2017-Sep-15 09:26N 38°13' E 015°18'0 0.1
2017-Sep-15 08:56N 38°13' E 015°18'0 0.1
2017-Sep-15 08:26N 38°13' E 015°18'0 0.2
2017-Sep-15 07:56N 38°13' E 015°18'0 0.1
2017-Sep-15 07:26N 38°13' E 015°18'0 0.1
2017-Sep-15 06:56N 38°13' E 015°18'0 0.0
2017-Sep-15 06:26N 38°13' E 015°18'0 0.1
2017-Sep-15 05:56N 38°13' E 015°18'0 0.1
2017-Sep-15 05:26N 38°13' E 015°18'0 0.0
2017-Sep-15 04:56N 38°13' E 015°18'0 0.1
2017-Sep-15 04:26N 38°13' E 015°18'0 0.0
2017-Sep-15 03:56N 38°13' E 015°18'0 0.0
2017-Sep-15 03:26N 38°13' E 015°18'0 0.0
2017-Sep-15 02:56N 38°13' E 015°18'0 0.0
2017-Sep-15 02:26N 38°13' E 015°18'0 0.1
2017-Sep-15 01:56N 38°13' E 015°18'0 0.1
2017-Sep-15 01:26N 38°13' E 015°18'0 0.1
2017-Sep-15 00:59N 38°13' E 015°18'0 0.1
2017-Sep-15 00:26N 38°13' E 015°18'0 0.0
2017-Sep-14 23:56N 38°13' E 015°18'0 0.0
2017-Sep-14 23:26N 38°13' E 015°18'0 0.0
2017-Sep-14 22:56N 38°13' E 015°18'0 0.0
2017-Sep-14 22:26N 38°13' E 015°18'0 0.0
2017-Sep-14 21:56N 38°13' E 015°18'0 0.0
2017-Sep-14 21:26N 38°13' E 015°18'0 0.0
2017-Sep-14 20:56N 38°13' E 015°18'0 0.0
2017-Sep-14 20:26N 38°13' E 015°18'0 0.0
2017-Sep-14 19:56N 38°13' E 015°18'  
Track history (hours):
 
Tides and Currents Weather Stations Pressure Air Temp Water Temp Dewpoint Dewpoint Depression Visibility Wind Speed Wind Dir Waves Ship Positions

Starling

Last reported at 2017-Sep-24 19:20 UTC. Time now 2017-Sep-26 16:23 UTC.
Position N 27°35' W 015°16'.

Length 228 m; draft 12.5 m.

Type: Ship. MMSI: 563445000.

Date/timePositionNaut miles runAvg speedWind from/ knotsBaromVisibWave heightAir tempDewpointWater temp
2017-Sep-24 19:20N 27°35' W 015°16'513.8
2017-Sep-24 18:58N 27°40' W 015°14'714.0
2017-Sep-24 18:30N 27°46' W 015°11'714.4
2017-Sep-24 18:00N 27°52' W 015°08'714.1
2017-Sep-24 17:30N 27°59' W 015°05'713.6
2017-Sep-24 17:00N 28°05' W 015°02'713.9
2017-Sep-24 16:30N 28°12' W 014°59'714.1
2017-Sep-24 16:00N 28°18' W 014°56'713.7
2017-Sep-24 15:30N 28°25' W 014°54'713.8
2017-Sep-24 15:00N 28°32' W 014°53'713.9
2017-Sep-24 14:30N 28°39' W 014°52'714.1
2017-Sep-24 14:00N 28°46' W 014°50'714.2
2017-Sep-24 13:30N 28°52' W 014°49'714.1
2017-Sep-24 13:00N 28°59' W 014°47'714.4
2017-Sep-24 12:30N 29°05' W 014°41'714.3
2017-Sep-24 12:00N 29°10' W 014°35'714.1
2017-Sep-24 11:30N 29°14' W 014°29'1314.0
2017-Sep-24 10:36N 29°23' W 014°19'1113.9
2017-Sep-24 09:50N 29°31' W 014°10'514.1
2017-Sep-24 09:28N 29°35' W 014°06'714.2
2017-Sep-24 09:00N 29°39' W 014°01'1214.3
2017-Sep-24 08:10N 29°48' W 013°51'214.1
2017-Sep-24 08:00N 29°50' W 013°50'1014.2
2017-Sep-24 07:19N 29°56' W 013°41'814.0
2017-Sep-24 06:46N 30°02' W 013°35'413.8
2017-Sep-24 06:30N 30°04' W 013°32'713.9
2017-Sep-24 06:00N 30°09' W 013°26'1214.3
2017-Sep-24 05:08N 30°18' W 013°16'314.5
2017-Sep-24 04:57N 30°20' W 013°14'614.2
2017-Sep-24 04:31N 30°24' W 013°09'814.0
2017-Sep-24 03:56N 30°30' W 013°02'814.1
2017-Sep-24 03:24N 30°35' W 012°56'514.3
2017-Sep-24 03:00N 30°39' W 012°52'714.2
2017-Sep-24 02:30N 30°44' W 012°46'714.1
2017-Sep-24 02:00N 30°49' W 012°40'714.4
2017-Sep-24 01:30N 30°54' W 012°34'714.2
2017-Sep-24 01:00N 30°60' W 012°29'913.7
2017-Sep-24 00:21N 31°06' W 012°21'514.0
2017-Sep-24 00:00N 31°09' W 012°17'714.5
2017-Sep-23 23:30N 31°15' W 012°11'64213.1
2017-Sep-21 22:37N 36°36' W 001°01'214.1
2017-Sep-21 22:30N 36°37' W 000°59'1014.1
2017-Sep-21 21:48N 36°39' W 000°47'414.0
2017-Sep-21 21:30N 36°40' W 000°42'713.9
2017-Sep-21 21:00N 36°41' W 000°33'714.0
2017-Sep-21 20:28N 36°42' W 000°24'1114.0
2017-Sep-21 19:39N 36°45' W 000°10'214.0
2017-Sep-21 19:30N 36°45' W 000°08'714.1
2017-Sep-21 19:00N 36°47' E 000°01'714.2
2017-Sep-21 18:30N 36°48' E 000°10'714.0
2017-Sep-21 18:00N 36°49' E 000°18'714.0
2017-Sep-21 17:30N 36°51' E 000°27'2113.8
2017-Sep-21 16:00N 36°55' E 000°52'713.8
2017-Sep-21 15:30N 36°57' E 001°00'714.2
2017-Sep-21 15:00N 36°58' E 001°09'914.4
2017-Sep-21 14:21N 36°60' E 001°21'514.4
2017-Sep-21 14:00N 37°01' E 001°27'714.4
2017-Sep-21 13:30N 37°02' E 001°35'914.2
2017-Sep-21 12:52N 37°04' E 001°47'52012.6
2017-Sep-19 19:27N 38°26' E 012°36'613.0
2017-Sep-19 19:00N 38°26' E 012°43'613.0
2017-Sep-19 18:30N 38°27' E 012°52'612.7
2017-Sep-19 18:00N 38°27' E 012°60'612.9
2017-Sep-19 17:30N 38°26' E 013°08'713.0
2017-Sep-19 17:00N 38°26' E 013°16'713.3
2017-Sep-19 16:30N 38°25' E 013°25'713.1
2017-Sep-19 16:00N 38°25' E 013°33'612.8
2017-Sep-19 15:30N 38°24' E 013°41'712.9
2017-Sep-19 15:00N 38°24' E 013°50'713.2
2017-Sep-19 14:28N 38°23' E 013°58'1013.3
2017-Sep-19 13:42N 38°22' E 014°11'313.1
2017-Sep-19 13:30N 38°22' E 014°15'612.5
2017-Sep-19 12:59N 38°21' E 014°23'612.3
2017-Sep-19 12:30N 38°21' E 014°30'612.5
2017-Sep-19 12:00N 38°20' E 014°38'612.7
2017-Sep-19 11:30N 38°20' E 014°46'612.5
2017-Sep-19 11:00N 38°19' E 014°54'612.7
2017-Sep-19 10:30N 38°19' E 015°02'613.1
2017-Sep-19 10:00N 38°19' E 015°11'611.8
2017-Sep-19 09:30N 38°17' E 015°18'4 7.0
2017-Sep-19 09:00N 38°15' E 015°21'0 0.7
2017-Sep-19 08:26N 38°14' E 015°21'0 0.0
2017-Sep-19 07:56N 38°14' E 015°21'0 0.1
2017-Sep-19 07:26N 38°14' E 015°21'0 0.0
2017-Sep-19 06:56N 38°14' E 015°21'0 0.0
2017-Sep-19 06:26N 38°14' E 015°21'0 0.0
2017-Sep-19 05:56N 38°14' E 015°21'0 0.0
2017-Sep-19 05:26N 38°14' E 015°21'0 0.1
2017-Sep-19 04:56N 38°14' E 015°21'0 0.1
2017-Sep-19 04:26N 38°14' E 015°21'0 0.1
2017-Sep-19 03:59N 38°14' E 015°21'0 0.1
2017-Sep-19 03:26N 38°14' E 015°21'0 0.0
2017-Sep-19 02:56N 38°14' E 015°21'0 0.0
2017-Sep-19 02:26N 38°14' E 015°21'0 0.0
2017-Sep-19 01:56N 38°14' E 015°21'0 0.0
2017-Sep-19 01:26N 38°14' E 015°21'0 0.0
2017-Sep-19 00:56N 38°14' E 015°21'0 0.0
2017-Sep-19 00:26N 38°14' E 015°21'0 0.0
2017-Sep-18 23:56N 38°14' E 015°21'0 0.0
2017-Sep-18 23:26N 38°14' E 015°21'0 0.0
2017-Sep-18 22:59N 38°14' E 015°21'0 0.1
2017-Sep-18 22:26N 38°14' E 015°21'0 0.2
2017-Sep-18 21:56N 38°14' E 015°21'0 0.3
2017-Sep-18 21:30N 38°14' E 015°21'2 4.1
2017-Sep-18 21:00N 38°15' E 015°19'3 4.9
2017-Sep-18 20:26N 38°13' E 015°16'0 0.0
2017-Sep-18 19:56N 38°13' E 015°16'0 0.0
2017-Sep-18 19:26N 38°13' E 015°16'0 0.0
2017-Sep-18 18:56N 38°13' E 015°16'0 0.0
2017-Sep-18 18:26N 38°13' E 015°16'0 0.0
2017-Sep-18 17:56N 38°13' E 015°16'0 0.0
2017-Sep-18 17:26N 38°13' E 015°16'0 0.0
2017-Sep-18 16:56N 38°13' E 015°16'0 0.0
2017-Sep-18 16:26N 38°13' E 015°16'0 0.0
2017-Sep-18 15:56N 38°13' E 015°16'0 0.0
2017-Sep-18 15:26N 38°13' E 015°16'0 0.0
2017-Sep-18 14:56N 38°13' E 015°16'0 0.0
2017-Sep-18 14:26N 38°13' E 015°16'0 0.0
2017-Sep-18 13:56N 38°13' E 015°16'0 0.0
2017-Sep-18 13:26N 38°13' E 015°16'0 0.0
2017-Sep-18 12:56N 38°13' E 015°16'0 0.0
2017-Sep-18 12:26N 38°13' E 015°16'0 0.0
2017-Sep-18 11:50N 38°13' E 015°16'0 0.0
2017-Sep-18 11:26N 38°13' E 015°16'0 0.0
2017-Sep-18 10:56N 38°13' E 015°16'0 0.0
2017-Sep-18 10:26N 38°13' E 015°16'0 0.0
2017-Sep-18 09:56N 38°13' E 015°16'0 0.0
2017-Sep-18 09:26N 38°13' E 015°16'0 0.0
2017-Sep-18 08:56N 38°13' E 015°16'0 0.0
2017-Sep-18 08:26N 38°13' E 015°16'0 0.0
2017-Sep-18 07:56N 38°13' E 015°16'0 0.0
2017-Sep-18 06:02N 38°13' E 015°16'0 0.0
2017-Sep-18 05:56N 38°13' E 015°16'0 0.0
2017-Sep-18 05:26N 38°13' E 015°16'0 0.0
2017-Sep-18 04:56N 38°13' E 015°16'0 0.0
2017-Sep-18 04:26N 38°13' E 015°16'0 0.0
2017-Sep-18 03:56N 38°13' E 015°16'0 0.0
2017-Sep-18 03:26N 38°13' E 015°16'0 0.0
2017-Sep-18 02:56N 38°13' E 015°16'0 0.0
2017-Sep-18 02:25N 38°13' E 015°16'0 0.0
2017-Sep-18 01:55N 38°13' E 015°16'0 0.0
2017-Sep-18 01:26N 38°13' E 015°16'0 0.0
2017-Sep-18 00:56N 38°13' E 015°16'0 0.0
2017-Sep-18 00:25N 38°13' E 015°16'0 0.0
2017-Sep-17 23:56N 38°13' E 015°16'0 0.0
2017-Sep-17 23:26N 38°13' E 015°16'0 0.0
2017-Sep-17 22:55N 38°13' E 015°16'0 0.0
2017-Sep-17 22:26N 38°13' E 015°16'0 0.0
2017-Sep-17 21:56N 38°13' E 015°16'0 0.0
2017-Sep-17 21:26N 38°13' E 015°16'0 0.0
2017-Sep-17 20:55N 38°13' E 015°16'0 0.0
2017-Sep-17 20:25N 38°13' E 015°16'0 0.0
2017-Sep-17 19:55N 38°13' E 015°16'0 0.0
2017-Sep-17 19:25N 38°13' E 015°16'0 0.0
2017-Sep-17 18:56N 38°13' E 015°16'0 0.0
2017-Sep-17 18:26N 38°13' E 015°16'0 0.0
2017-Sep-17 17:56N 38°13' E 015°16'0 0.0
2017-Sep-17 17:26N 38°13' E 015°16'0 0.0
2017-Sep-17 16:55N 38°13' E 015°16'0 0.0
2017-Sep-17 16:25N 38°13' E 015°16'0 0.0
2017-Sep-17 13:55N 38°13' E 015°16'0 0.0
2017-Sep-17 13:25N 38°13' E 015°16'0 0.0
2017-Sep-17 12:55N 38°13' E 015°16'0 0.0
2017-Sep-17 12:25N 38°13' E 015°16'0 0.0
2017-Sep-17 11:55N 38°13' E 015°16'0 0.0
2017-Sep-17 11:25N 38°13' E 015°16'0 0.0
2017-Sep-17 10:56N 38°13' E 015°16'0 0.0
2017-Sep-17 10:25N 38°13' E 015°16'0 0.0
2017-Sep-17 09:55N 38°13' E 015°16'0 0.0
2017-Sep-17 09:25N 38°13' E 015°16'0 0.0
2017-Sep-17 08:55N 38°13' E 015°16'0 0.0
2017-Sep-17 08:26N 38°13' E 015°16'0 0.0
2017-Sep-17 07:56N 38°13' E 015°16'0 0.0
2017-Sep-17 07:25N 38°13' E 015°16'0 0.0
2017-Sep-17 06:55N 38°13' E 015°16'0 0.0
2017-Sep-17 06:25N 38°13' E 015°16'0 0.0
2017-Sep-17 05:55N 38°13' E 015°16'0 0.0
2017-Sep-17 05:25N 38°13' E 015°16'0 0.0
2017-Sep-17 04:55N 38°13' E 015°16'0 0.0
2017-Sep-17 04:25N 38°13' E 015°16'0 0.0
2017-Sep-17 03:55N 38°13' E 015°16'0 0.0
2017-Sep-17 03:25N 38°13' E 015°16'0 0.0
2017-Sep-17 02:55N 38°13' E 015°16'0 0.0
2017-Sep-17 02:25N 38°13' E 015°16'0 0.0
2017-Sep-17 01:55N 38°13' E 015°16'0 0.0
2017-Sep-17 01:25N 38°13' E 015°16'0 0.0
2017-Sep-17 00:55N 38°13' E 015°16'0 0.0
2017-Sep-17 00:25N 38°13' E 015°16'0 0.0
2017-Sep-16 23:55N 38°13' E 015°16'0 0.0
2017-Sep-16 23:25N 38°13' E 015°16'0 0.0
2017-Sep-16 22:55N 38°13' E 015°16'0 0.0
2017-Sep-16 22:25N 38°13' E 015°16'0 0.0
2017-Sep-16 21:55N 38°13' E 015°16'0 0.0
2017-Sep-16 21:25N 38°13' E 015°16'0 0.0
2017-Sep-16 20:55N 38°13' E 015°16'0 0.0
2017-Sep-16 20:25N 38°13' E 015°16'0 0.0
2017-Sep-16 19:55N 38°13' E 015°16'0 0.0
2017-Sep-16 19:25N 38°13' E 015°16'0 0.0
2017-Sep-16 18:55N 38°13' E 015°16'0 0.0
2017-Sep-16 18:25N 38°13' E 015°16'0 0.0
2017-Sep-16 17:55N 38°13' E 015°16'0 0.0
2017-Sep-16 17:25N 38°13' E 015°16'0 0.0
2017-Sep-16 16:55N 38°13' E 015°16'0 0.0
2017-Sep-16 16:25N 38°13' E 015°16'0 0.0
2017-Sep-16 15:55N 38°13' E 015°16'0 0.0
2017-Sep-16 15:25N 38°13' E 015°16'0 0.0
2017-Sep-16 14:55N 38°13' E 015°16'0 0.0
2017-Sep-16 14:25N 38°13' E 015°16'0 0.0
2017-Sep-16 14:01N 38°13' E 015°16'0 0.5
2017-Sep-16 13:30N 38°13' E 015°16'2 4.0
2017-Sep-16 13:01N 38°13' E 015°18'0 0.3
2017-Sep-16 12:26N 38°13' E 015°18'0 0.2
2017-Sep-16 11:59N 38°13' E 015°18'0 0.2
2017-Sep-16 11:26N 38°13' E 015°18'0 0.3
2017-Sep-16 10:56N 38°13' E 015°18'0 0.0
2017-Sep-16 09:14N 38°13' E 015°18'0 0.1
2017-Sep-16 08:56N 38°13' E 015°18'0 0.1
2017-Sep-16 08:26N 38°13' E 015°18'0 0.1
2017-Sep-16 07:56N 38°13' E 015°18'0 0.0
2017-Sep-16 07:26N 38°13' E 015°18'0 0.0
2017-Sep-16 06:56N 38°13' E 015°18'0 0.0
2017-Sep-16 06:26N 38°13' E 015°18'0 0.1
2017-Sep-16 05:56N 38°13' E 015°18'0 0.1
2017-Sep-16 05:26N 38°13' E 015°18'0 0.0
2017-Sep-16 04:56N 38°13' E 015°18'0 0.0
2017-Sep-16 04:26N 38°13' E 015°18'0 0.0
2017-Sep-16 03:44N 38°13' E 015°18'0 0.0
2017-Sep-16 03:26N 38°13' E 015°18'0 0.0
2017-Sep-16 02:56N 38°13' E 015°18'0 0.1
2017-Sep-16 02:29N 38°13' E 015°18'0 0.1
2017-Sep-16 01:56N 38°13' E 015°18'0 0.1
2017-Sep-16 01:26N 38°13' E 015°18'0 0.1
2017-Sep-16 00:56N 38°13' E 015°18'0 0.0
2017-Sep-16 00:29N 38°13' E 015°18'0 0.0
2017-Sep-15 23:59N 38°13' E 015°18'0 0.0
2017-Sep-15 23:29N 38°13' E 015°18'0 0.0
2017-Sep-15 22:59N 38°13' E 015°18'0 0.0
2017-Sep-15 22:29N 38°13' E 015°18'0 0.0
2017-Sep-15 21:56N 38°13' E 015°18'0 0.0
2017-Sep-15 21:29N 38°13' E 015°18'0 0.0
2017-Sep-15 20:59N 38°13' E 015°18'0 0.0
2017-Sep-15 20:26N 38°13' E 015°18'0 0.0
2017-Sep-15 19:56N 38°13' E 015°18'0 0.2
2017-Sep-15 19:26N 38°13' E 015°18'0 0.2
2017-Sep-15 18:56N 38°13' E 015°18'0 0.1
2017-Sep-15 18:26N 38°13' E 015°18'0 0.0
2017-Sep-15 17:56N 38°13' E 015°18'0 0.0
2017-Sep-15 17:26N 38°13' E 015°18'0 0.0
2017-Sep-15 16:56N 38°13' E 015°18'0 0.0
2017-Sep-15 16:26N 38°13' E 015°18'0 0.0
2017-Sep-15 15:56N 38°13' E 015°18'0 0.0
2017-Sep-15 15:26N 38°13' E 015°18'0 0.0
2017-Sep-15 14:56N 38°13' E 015°18'0 0.0
2017-Sep-15 14:26N 38°13' E 015°18'0 0.0
2017-Sep-15 13:56N 38°13' E 015°18'0 0.0
2017-Sep-15 13:26N 38°13' E 015°18'0 0.0
2017-Sep-15 12:56N 38°13' E 015°18'0 0.0
2017-Sep-15 12:26N 38°13' E 015°18'0 0.0
2017-Sep-15 11:56N 38°13' E 015°18'0 0.0
2017-Sep-15 11:26N 38°13' E 015°18'0 0.0
2017-Sep-15 10:56N 38°13' E 015°18'0 0.0
2017-Sep-15 10:26N 38°13' E 015°18'0 0.0
2017-Sep-15 09:59N 38°13' E 015°18'0 0.0
2017-Sep-15 09:26N 38°13' E 015°18'0 0.1
2017-Sep-15 08:56N 38°13' E 015°18'0 0.1
2017-Sep-15 08:26N 38°13' E 015°18'0 0.2
2017-Sep-15 07:56N 38°13' E 015°18'0 0.1
2017-Sep-15 07:26N 38°13' E 015°18'0 0.1
2017-Sep-15 06:56N 38°13' E 015°18'0 0.0
2017-Sep-15 06:26N 38°13' E 015°18'0 0.1
2017-Sep-15 05:56N 38°13' E 015°18'0 0.1
2017-Sep-15 05:26N 38°13' E 015°18'0 0.0
2017-Sep-15 04:56N 38°13' E 015°18'0 0.1
2017-Sep-15 04:26N 38°13' E 015°18'0 0.0
2017-Sep-15 03:56N 38°13' E 015°18'0 0.0
2017-Sep-15 03:26N 38°13' E 015°18'0 0.0
2017-Sep-15 02:56N 38°13' E 015°18'0 0.0
2017-Sep-15 02:26N 38°13' E 015°18'0 0.1
2017-Sep-15 01:56N 38°13' E 015°18'0 0.1
2017-Sep-15 01:26N 38°13' E 015°18'0 0.1
2017-Sep-15 00:59N 38°13' E 015°18'0 0.1
2017-Sep-15 00:26N 38°13' E 015°18'0 0.0
2017-Sep-14 23:56N 38°13' E 015°18'0 0.0
2017-Sep-14 23:26N 38°13' E 015°18'0 0.0
2017-Sep-14 22:56N 38°13' E 015°18'0 0.0
2017-Sep-14 22:26N 38°13' E 015°18'0 0.0
2017-Sep-14 21:56N 38°13' E 015°18'0 0.0
2017-Sep-14 21:26N 38°13' E 015°18'0 0.0
2017-Sep-14 20:56N 38°13' E 015°18'0 0.0
2017-Sep-14 20:26N 38°13' E 015°18'0 0.0
2017-Sep-14 19:56N 38°13' E 015°18'  

Dump ship's entire track history